sensor_id;sensor_type;location;lat;lon;timestamp;P1;durP1;ratioP1;P2;durP2;ratioP2
53857;SDS011;39763;51.188;6.690;2022-10-22T00:00:02;15.35;;;5.78;;
53857;SDS011;39763;51.188;6.690;2022-10-22T00:01:35;14.15;;;6.15;;
53857;SDS011;39763;51.188;6.690;2022-10-22T00:03:09;12.38;;;6.05;;
53857;SDS011;39763;51.188;6.690;2022-10-22T00:04:41;11.65;;;5.93;;
53857;SDS011;39763;51.188;6.690;2022-10-22T00:06:18;12.82;;;5.68;;
53857;SDS011;39763;51.188;6.690;2022-10-22T00:07:49;13.82;;;6.25;;
53857;SDS011;39763;51.188;6.690;2022-10-22T00:09:21;12.90;;;6.13;;
53857;SDS011;39763;51.188;6.690;2022-10-22T00:10:54;16.83;;;6.28;;
53857;SDS011;39763;51.188;6.690;2022-10-22T00:12:26;13.20;;;6.28;;
53857;SDS011;39763;51.188;6.690;2022-10-22T00:13:58;12.75;;;6.25;;
53857;SDS011;39763;51.188;6.690;2022-10-22T00:15:29;15.13;;;6.10;;
53857;SDS011;39763;51.188;6.690;2022-10-22T00:17:01;11.80;;;5.82;;
53857;SDS011;39763;51.188;6.690;2022-10-22T00:18:36;16.38;;;5.78;;
53857;SDS011;39763;51.188;6.690;2022-10-22T00:20:09;12.25;;;6.45;;
53857;SDS011;39763;51.188;6.690;2022-10-22T00:21:41;14.23;;;6.25;;
53857;SDS011;39763;51.188;6.690;2022-10-22T00:23:12;14.80;;;6.18;;
53857;SDS011;39763;51.188;6.690;2022-10-22T00:24:44;13.95;;;6.45;;
53857;SDS011;39763;51.188;6.690;2022-10-22T00:26:17;13.13;;;6.38;;
53857;SDS011;39763;51.188;6.690;2022-10-22T00:27:48;12.77;;;5.75;;
53857;SDS011;39763;51.188;6.690;2022-10-22T00:29:22;12.55;;;5.82;;
53857;SDS011;39763;51.188;6.690;2022-10-22T00:30:54;13.52;;;7.00;;
53857;SDS011;39763;51.188;6.690;2022-10-22T00:32:26;13.70;;;5.97;;
53857;SDS011;39763;51.188;6.690;2022-10-22T00:33:59;13.45;;;6.25;;
53857;SDS011;39763;51.188;6.690;2022-10-22T00:35:31;13.30;;;6.78;;
53857;SDS011;39763;51.188;6.690;2022-10-22T00:37:03;14.18;;;6.40;;
53857;SDS011;39763;51.188;6.690;2022-10-22T00:38:35;14.57;;;6.15;;
53857;SDS011;39763;51.188;6.690;2022-10-22T00:40:07;13.23;;;6.75;;
53857;SDS011;39763;51.188;6.690;2022-10-22T00:41:41;13.52;;;6.20;;
53857;SDS011;39763;51.188;6.690;2022-10-22T00:43:15;12.07;;;6.05;;
53857;SDS011;39763;51.188;6.690;2022-10-22T00:44:59;14.02;;;6.32;;
53857;SDS011;39763;51.188;6.690;2022-10-22T00:46:34;13.10;;;6.15;;
53857;SDS011;39763;51.188;6.690;2022-10-22T00:48:07;12.77;;;5.90;;
53857;SDS011;39763;51.188;6.690;2022-10-22T00:49:40;14.40;;;6.40;;
53857;SDS011;39763;51.188;6.690;2022-10-22T00:51:13;12.70;;;6.43;;
53857;SDS011;39763;51.188;6.690;2022-10-22T00:52:45;12.13;;;6.20;;
53857;SDS011;39763;51.188;6.690;2022-10-22T00:54:17;15.10;;;6.80;;
53857;SDS011;39763;51.188;6.690;2022-10-22T00:55:50;12.75;;;6.53;;
53857;SDS011;39763;51.188;6.690;2022-10-22T00:57:25;14.25;;;6.78;;
53857;SDS011;39763;51.188;6.690;2022-10-22T00:58:58;14.68;;;6.55;;
53857;SDS011;39763;51.188;6.690;2022-10-22T01:00:32;13.88;;;6.32;;
53857;SDS011;39763;51.188;6.690;2022-10-22T01:02:04;14.52;;;6.90;;
53857;SDS011;39763;51.188;6.690;2022-10-22T01:03:35;14.15;;;6.03;;
53857;SDS011;39763;51.188;6.690;2022-10-22T01:05:08;13.13;;;6.43;;
53857;SDS011;39763;51.188;6.690;2022-10-22T01:06:40;14.00;;;6.20;;
53857;SDS011;39763;51.188;6.690;2022-10-22T01:08:14;14.43;;;6.57;;
53857;SDS011;39763;51.188;6.690;2022-10-22T01:09:58;12.02;;;6.25;;
53857;SDS011;39763;51.188;6.690;2022-10-22T01:11:42;11.82;;;6.43;;
53857;SDS011;39763;51.188;6.690;2022-10-22T01:13:28;12.75;;;6.90;;
53857;SDS011;39763;51.188;6.690;2022-10-22T01:15:16;15.65;;;6.72;;
53857;SDS011;39763;51.188;6.690;2022-10-22T01:16:56;14.05;;;6.78;;
53857;SDS011;39763;51.188;6.690;2022-10-22T01:18:36;14.48;;;6.43;;
53857;SDS011;39763;51.188;6.690;2022-10-22T01:20:20;18.40;;;6.80;;
53857;SDS011;39763;51.188;6.690;2022-10-22T01:22:09;14.23;;;6.93;;
53857;SDS011;39763;51.188;6.690;2022-10-22T01:24:02;13.13;;;6.85;;
53857;SDS011;39763;51.188;6.690;2022-10-22T01:25:49;13.55;;;6.47;;
53857;SDS011;39763;51.188;6.690;2022-10-22T01:27:38;14.63;;;6.60;;
53857;SDS011;39763;51.188;6.690;2022-10-22T01:29:21;13.18;;;6.72;;
53857;SDS011;39763;51.188;6.690;2022-10-22T01:30:57;13.88;;;6.60;;
53857;SDS011;39763;51.188;6.690;2022-10-22T01:32:32;15.60;;;7.15;;
53857;SDS011;39763;51.188;6.690;2022-10-22T01:34:10;12.82;;;6.63;;
53857;SDS011;39763;51.188;6.690;2022-10-22T01:35:44;15.90;;;6.78;;
53857;SDS011;39763;51.188;6.690;2022-10-22T01:37:16;17.98;;;6.80;;
53857;SDS011;39763;51.188;6.690;2022-10-22T01:38:50;12.45;;;6.80;;
53857;SDS011;39763;51.188;6.690;2022-10-22T01:40:23;16.67;;;6.95;;
53857;SDS011;39763;51.188;6.690;2022-10-22T01:41:56;17.80;;;6.93;;
53857;SDS011;39763;51.188;6.690;2022-10-22T01:43:28;13.15;;;6.78;;
53857;SDS011;39763;51.188;6.690;2022-10-22T01:45:01;12.45;;;6.45;;
53857;SDS011;39763;51.188;6.690;2022-10-22T01:46:40;15.07;;;6.85;;
53857;SDS011;39763;51.188;6.690;2022-10-22T01:48:22;13.15;;;6.70;;
53857;SDS011;39763;51.188;6.690;2022-10-22T01:50:09;16.67;;;7.55;;
53857;SDS011;39763;51.188;6.690;2022-10-22T01:51:51;13.55;;;6.55;;
53857;SDS011;39763;51.188;6.690;2022-10-22T01:53:35;17.30;;;7.35;;
53857;SDS011;39763;51.188;6.690;2022-10-22T01:55:18;17.90;;;6.93;;
53857;SDS011;39763;51.188;6.690;2022-10-22T01:56:57;12.98;;;6.40;;
53857;SDS011;39763;51.188;6.690;2022-10-22T01:58:39;16.33;;;6.90;;
53857;SDS011;39763;51.188;6.690;2022-10-22T02:00:16;13.80;;;7.13;;
53857;SDS011;39763;51.188;6.690;2022-10-22T02:01:52;17.33;;;6.95;;
53857;SDS011;39763;51.188;6.690;2022-10-22T02:03:32;13.70;;;7.20;;
53857;SDS011;39763;51.188;6.690;2022-10-22T02:05:10;14.82;;;7.10;;
53857;SDS011;39763;51.188;6.690;2022-10-22T02:06:47;14.07;;;7.07;;
53857;SDS011;39763;51.188;6.690;2022-10-22T02:08:22;14.00;;;6.68;;
53857;SDS011;39763;51.188;6.690;2022-10-22T02:09:57;15.20;;;7.10;;
53857;SDS011;39763;51.188;6.690;2022-10-22T02:11:30;14.10;;;6.50;;
53857;SDS011;39763;51.188;6.690;2022-10-22T02:13:02;15.82;;;7.25;;
53857;SDS011;39763;51.188;6.690;2022-10-22T02:14:40;14.75;;;6.60;;
53857;SDS011;39763;51.188;6.690;2022-10-22T02:16:18;16.83;;;7.20;;
53857;SDS011;39763;51.188;6.690;2022-10-22T02:17:54;15.27;;;7.25;;
53857;SDS011;39763;51.188;6.690;2022-10-22T02:19:29;14.60;;;7.05;;
53857;SDS011;39763;51.188;6.690;2022-10-22T02:21:08;13.90;;;6.32;;
53857;SDS011;39763;51.188;6.690;2022-10-22T02:22:40;13.80;;;6.90;;
53857;SDS011;39763;51.188;6.690;2022-10-22T02:24:13;14.85;;;6.75;;
53857;SDS011;39763;51.188;6.690;2022-10-22T02:25:46;16.10;;;6.70;;
53857;SDS011;39763;51.188;6.690;2022-10-22T02:27:23;16.67;;;7.10;;
53857;SDS011;39763;51.188;6.690;2022-10-22T02:29:02;12.00;;;6.60;;
53857;SDS011;39763;51.188;6.690;2022-10-22T02:30:38;15.18;;;6.50;;
53857;SDS011;39763;51.188;6.690;2022-10-22T02:32:17;13.52;;;6.70;;
53857;SDS011;39763;51.188;6.690;2022-10-22T02:33:53;13.63;;;7.07;;
53857;SDS011;39763;51.188;6.690;2022-10-22T02:35:28;14.88;;;7.00;;
53857;SDS011;39763;51.188;6.690;2022-10-22T02:37:01;16.30;;;6.53;;
53857;SDS011;39763;51.188;6.690;2022-10-22T02:38:34;15.20;;;7.00;;
53857;SDS011;39763;51.188;6.690;2022-10-22T02:40:08;13.40;;;6.65;;
53857;SDS011;39763;51.188;6.690;2022-10-22T02:41:40;14.27;;;7.00;;
53857;SDS011;39763;51.188;6.690;2022-10-22T02:43:12;17.13;;;7.18;;
53857;SDS011;39763;51.188;6.690;2022-10-22T02:44:44;15.20;;;7.05;;
53857;SDS011;39763;51.188;6.690;2022-10-22T02:46:16;14.30;;;6.65;;
53857;SDS011;39763;51.188;6.690;2022-10-22T02:47:49;15.55;;;7.25;;
53857;SDS011;39763;51.188;6.690;2022-10-22T02:49:20;16.60;;;7.10;;
53857;SDS011;39763;51.188;6.690;2022-10-22T02:50:52;13.48;;;7.00;;
53857;SDS011;39763;51.188;6.690;2022-10-22T02:52:24;14.45;;;7.45;;
53857;SDS011;39763;51.188;6.690;2022-10-22T02:53:55;13.80;;;7.07;;
53857;SDS011;39763;51.188;6.690;2022-10-22T02:55:27;13.68;;;6.93;;
53857;SDS011;39763;51.188;6.690;2022-10-22T02:56:59;14.18;;;7.43;;
53857;SDS011;39763;51.188;6.690;2022-10-22T02:58:30;15.30;;;7.95;;
53857;SDS011;39763;51.188;6.690;2022-10-22T03:00:02;18.65;;;7.57;;
53857;SDS011;39763;51.188;6.690;2022-10-22T03:01:34;15.65;;;7.30;;
53857;SDS011;39763;51.188;6.690;2022-10-22T03:03:08;16.92;;;7.28;;
53857;SDS011;39763;51.188;6.690;2022-10-22T03:04:39;15.48;;;7.20;;
53857;SDS011;39763;51.188;6.690;2022-10-22T03:06:12;14.07;;;7.28;;
53857;SDS011;39763;51.188;6.690;2022-10-22T03:07:44;18.95;;;7.40;;
53857;SDS011;39763;51.188;6.690;2022-10-22T03:09:16;18.45;;;7.95;;
53857;SDS011;39763;51.188;6.690;2022-10-22T03:10:54;18.52;;;7.15;;
53857;SDS011;39763;51.188;6.690;2022-10-22T03:12:26;16.05;;;7.50;;
53857;SDS011;39763;51.188;6.690;2022-10-22T03:13:57;14.88;;;7.30;;
53857;SDS011;39763;51.188;6.690;2022-10-22T03:15:29;17.48;;;7.50;;
53857;SDS011;39763;51.188;6.690;2022-10-22T03:17:00;17.55;;;7.25;;
53857;SDS011;39763;51.188;6.690;2022-10-22T03:18:33;15.90;;;8.15;;
53857;SDS011;39763;51.188;6.690;2022-10-22T03:20:06;15.32;;;7.35;;
53857;SDS011;39763;51.188;6.690;2022-10-22T03:21:39;14.52;;;7.22;;
53857;SDS011;39763;51.188;6.690;2022-10-22T03:23:13;16.20;;;7.88;;
53857;SDS011;39763;51.188;6.690;2022-10-22T03:24:47;18.35;;;7.50;;
53857;SDS011;39763;51.188;6.690;2022-10-22T03:26:21;14.65;;;7.45;;
53857;SDS011;39763;51.188;6.690;2022-10-22T03:27:54;13.95;;;7.20;;
53857;SDS011;39763;51.188;6.690;2022-10-22T03:29:31;14.73;;;7.60;;
53857;SDS011;39763;51.188;6.690;2022-10-22T03:31:06;16.00;;;8.13;;
53857;SDS011;39763;51.188;6.690;2022-10-22T03:32:37;13.98;;;7.95;;
53857;SDS011;39763;51.188;6.690;2022-10-22T03:34:10;14.35;;;7.50;;
53857;SDS011;39763;51.188;6.690;2022-10-22T03:35:44;15.32;;;7.43;;
53857;SDS011;39763;51.188;6.690;2022-10-22T03:37:17;17.85;;;7.97;;
53857;SDS011;39763;51.188;6.690;2022-10-22T03:38:49;16.42;;;7.57;;
53857;SDS011;39763;51.188;6.690;2022-10-22T03:40:21;15.55;;;7.78;;
53857;SDS011;39763;51.188;6.690;2022-10-22T03:41:53;15.32;;;8.40;;
53857;SDS011;39763;51.188;6.690;2022-10-22T03:43:25;15.02;;;7.70;;
53857;SDS011;39763;51.188;6.690;2022-10-22T03:44:57;16.15;;;8.48;;
53857;SDS011;39763;51.188;6.690;2022-10-22T03:46:28;12.80;;;7.57;;
53857;SDS011;39763;51.188;6.690;2022-10-22T03:48:00;15.05;;;7.82;;
53857;SDS011;39763;51.188;6.690;2022-10-22T03:49:33;14.85;;;6.97;;
53857;SDS011;39763;51.188;6.690;2022-10-22T03:51:06;14.85;;;7.60;;
53857;SDS011;39763;51.188;6.690;2022-10-22T03:52:38;15.45;;;8.02;;
53857;SDS011;39763;51.188;6.690;2022-10-22T03:54:10;16.20;;;7.53;;
53857;SDS011;39763;51.188;6.690;2022-10-22T03:55:42;16.05;;;7.82;;
53857;SDS011;39763;51.188;6.690;2022-10-22T03:57:13;15.70;;;7.63;;
53857;SDS011;39763;51.188;6.690;2022-10-22T03:58:45;17.08;;;8.00;;
53857;SDS011;39763;51.188;6.690;2022-10-22T04:00:17;18.60;;;7.90;;
53857;SDS011;39763;51.188;6.690;2022-10-22T04:01:49;13.82;;;7.60;;
53857;SDS011;39763;51.188;6.690;2022-10-22T04:03:20;15.52;;;7.88;;
53857;SDS011;39763;51.188;6.690;2022-10-22T04:04:53;14.35;;;7.72;;
53857;SDS011;39763;51.188;6.690;2022-10-22T04:06:25;15.05;;;7.78;;
53857;SDS011;39763;51.188;6.690;2022-10-22T04:07:56;16.75;;;8.07;;
53857;SDS011;39763;51.188;6.690;2022-10-22T04:09:29;17.48;;;7.40;;
53857;SDS011;39763;51.188;6.690;2022-10-22T04:11:01;17.63;;;7.50;;
53857;SDS011;39763;51.188;6.690;2022-10-22T04:12:33;18.10;;;9.85;;
53857;SDS011;39763;51.188;6.690;2022-10-22T04:14:05;14.35;;;7.18;;
53857;SDS011;39763;51.188;6.690;2022-10-22T04:15:36;13.48;;;7.40;;
53857;SDS011;39763;51.188;6.690;2022-10-22T04:17:08;15.98;;;7.60;;
53857;SDS011;39763;51.188;6.690;2022-10-22T04:18:40;16.40;;;8.48;;
53857;SDS011;39763;51.188;6.690;2022-10-22T04:20:14;16.80;;;8.13;;
53857;SDS011;39763;51.188;6.690;2022-10-22T04:21:46;17.13;;;8.23;;
53857;SDS011;39763;51.188;6.690;2022-10-22T04:23:17;15.85;;;7.72;;
53857;SDS011;39763;51.188;6.690;2022-10-22T04:24:49;19.00;;;8.45;;
53857;SDS011;39763;51.188;6.690;2022-10-22T04:26:26;16.95;;;7.95;;
53857;SDS011;39763;51.188;6.690;2022-10-22T04:27:57;16.70;;;8.30;;
53857;SDS011;39763;51.188;6.690;2022-10-22T04:29:29;15.45;;;7.53;;
53857;SDS011;39763;51.188;6.690;2022-10-22T04:31:05;17.27;;;7.57;;
53857;SDS011;39763;51.188;6.690;2022-10-22T04:32:38;13.85;;;7.63;;
53857;SDS011;39763;51.188;6.690;2022-10-22T04:34:10;26.27;;;18.85;;
53857;SDS011;39763;51.188;6.690;2022-10-22T04:35:43;16.15;;;8.00;;
53857;SDS011;39763;51.188;6.690;2022-10-22T04:37:14;16.08;;;8.15;;
53857;SDS011;39763;51.188;6.690;2022-10-22T04:38:46;15.05;;;7.82;;
53857;SDS011;39763;51.188;6.690;2022-10-22T04:40:22;17.48;;;8.05;;
53857;SDS011;39763;51.188;6.690;2022-10-22T04:41:53;14.50;;;8.00;;
53857;SDS011;39763;51.188;6.690;2022-10-22T04:43:25;15.90;;;7.50;;
53857;SDS011;39763;51.188;6.690;2022-10-22T04:44:57;14.27;;;7.53;;
53857;SDS011;39763;51.188;6.690;2022-10-22T04:46:29;17.17;;;8.00;;
53857;SDS011;39763;51.188;6.690;2022-10-22T04:48:04;14.32;;;7.75;;
53857;SDS011;39763;51.188;6.690;2022-10-22T04:49:36;16.67;;;8.20;;
53857;SDS011;39763;51.188;6.690;2022-10-22T04:51:09;17.50;;;7.75;;
53857;SDS011;39763;51.188;6.690;2022-10-22T04:52:43;14.07;;;7.88;;
53857;SDS011;39763;51.188;6.690;2022-10-22T04:54:15;16.38;;;8.35;;
53857;SDS011;39763;51.188;6.690;2022-10-22T04:55:46;14.70;;;7.60;;
53857;SDS011;39763;51.188;6.690;2022-10-22T04:57:18;16.63;;;8.15;;
53857;SDS011;39763;51.188;6.690;2022-10-22T04:58:50;17.17;;;7.88;;
53857;SDS011;39763;51.188;6.690;2022-10-22T05:00:24;15.25;;;9.20;;
53857;SDS011;39763;51.188;6.690;2022-10-22T05:01:55;14.63;;;8.35;;
53857;SDS011;39763;51.188;6.690;2022-10-22T05:03:27;15.73;;;7.88;;
53857;SDS011;39763;51.188;6.690;2022-10-22T05:04:58;15.73;;;8.27;;
53857;SDS011;39763;51.188;6.690;2022-10-22T05:06:33;17.70;;;8.35;;
53857;SDS011;39763;51.188;6.690;2022-10-22T05:08:05;16.25;;;8.10;;
53857;SDS011;39763;51.188;6.690;2022-10-22T05:09:37;15.10;;;8.02;;
53857;SDS011;39763;51.188;6.690;2022-10-22T05:11:12;16.48;;;7.88;;
53857;SDS011;39763;51.188;6.690;2022-10-22T05:12:44;19.30;;;8.05;;
53857;SDS011;39763;51.188;6.690;2022-10-22T05:14:17;16.42;;;8.50;;
53857;SDS011;39763;51.188;6.690;2022-10-22T05:15:49;15.40;;;7.65;;
53857;SDS011;39763;51.188;6.690;2022-10-22T05:17:21;14.63;;;7.85;;
53857;SDS011;39763;51.188;6.690;2022-10-22T05:18:52;16.38;;;8.07;;
53857;SDS011;39763;51.188;6.690;2022-10-22T05:20:24;16.73;;;7.70;;
53857;SDS011;39763;51.188;6.690;2022-10-22T05:21:58;14.80;;;8.18;;
53857;SDS011;39763;51.188;6.690;2022-10-22T05:23:31;16.50;;;8.55;;
53857;SDS011;39763;51.188;6.690;2022-10-22T05:25:03;16.77;;;8.18;;
53857;SDS011;39763;51.188;6.690;2022-10-22T05:26:35;14.23;;;7.88;;
53857;SDS011;39763;51.188;6.690;2022-10-22T05:28:07;17.92;;;9.23;;
53857;SDS011;39763;51.188;6.690;2022-10-22T05:29:39;17.38;;;8.40;;
53857;SDS011;39763;51.188;6.690;2022-10-22T05:31:11;25.35;;;15.32;;
53857;SDS011;39763;51.188;6.690;2022-10-22T05:32:43;16.08;;;8.65;;
53857;SDS011;39763;51.188;6.690;2022-10-22T05:34:15;18.60;;;9.05;;
53857;SDS011;39763;51.188;6.690;2022-10-22T05:35:47;15.32;;;8.60;;
53857;SDS011;39763;51.188;6.690;2022-10-22T05:37:20;17.00;;;9.30;;
53857;SDS011;39763;51.188;6.690;2022-10-22T05:38:52;16.52;;;9.00;;
53857;SDS011;39763;51.188;6.690;2022-10-22T05:40:24;16.88;;;9.02;;
53857;SDS011;39763;51.188;6.690;2022-10-22T05:42:01;15.55;;;9.02;;
53857;SDS011;39763;51.188;6.690;2022-10-22T05:43:33;15.13;;;9.10;;
53857;SDS011;39763;51.188;6.690;2022-10-22T05:45:05;23.83;;;9.85;;
53857;SDS011;39763;51.188;6.690;2022-10-22T05:46:38;15.48;;;8.60;;
53857;SDS011;39763;51.188;6.690;2022-10-22T05:48:10;15.90;;;8.73;;
53857;SDS011;39763;51.188;6.690;2022-10-22T05:49:42;16.67;;;9.63;;
53857;SDS011;39763;51.188;6.690;2022-10-22T05:51:13;17.85;;;9.20;;
53857;SDS011;39763;51.188;6.690;2022-10-22T05:52:47;17.63;;;9.30;;
53857;SDS011;39763;51.188;6.690;2022-10-22T05:54:19;17.15;;;9.20;;
53857;SDS011;39763;51.188;6.690;2022-10-22T05:55:52;16.75;;;8.73;;
53857;SDS011;39763;51.188;6.690;2022-10-22T05:57:23;17.58;;;8.80;;
53857;SDS011;39763;51.188;6.690;2022-10-22T05:58:55;18.98;;;9.02;;
53857;SDS011;39763;51.188;6.690;2022-10-22T06:00:27;15.98;;;8.63;;
53857;SDS011;39763;51.188;6.690;2022-10-22T06:01:59;14.63;;;8.80;;
53857;SDS011;39763;51.188;6.690;2022-10-22T06:03:30;15.70;;;8.65;;
53857;SDS011;39763;51.188;6.690;2022-10-22T06:05:03;16.77;;;8.65;;
53857;SDS011;39763;51.188;6.690;2022-10-22T06:06:35;15.90;;;9.05;;
53857;SDS011;39763;51.188;6.690;2022-10-22T06:08:11;15.43;;;8.52;;
53857;SDS011;39763;51.188;6.690;2022-10-22T06:09:49;16.45;;;8.90;;
53857;SDS011;39763;51.188;6.690;2022-10-22T06:11:21;14.55;;;8.90;;
53857;SDS011;39763;51.188;6.690;2022-10-22T06:12:54;15.75;;;9.23;;
53857;SDS011;39763;51.188;6.690;2022-10-22T06:14:25;18.25;;;9.15;;
53857;SDS011;39763;51.188;6.690;2022-10-22T06:15:58;19.73;;;10.15;;
53857;SDS011;39763;51.188;6.690;2022-10-22T06:17:29;16.92;;;9.55;;
53857;SDS011;39763;51.188;6.690;2022-10-22T06:19:01;18.45;;;9.30;;
53857;SDS011;39763;51.188;6.690;2022-10-22T06:20:33;14.45;;;9.05;;
53857;SDS011;39763;51.188;6.690;2022-10-22T06:22:05;17.85;;;9.20;;
53857;SDS011;39763;51.188;6.690;2022-10-22T06:23:38;18.08;;;9.75;;
53857;SDS011;39763;51.188;6.690;2022-10-22T06:25:11;16.50;;;9.30;;
53857;SDS011;39763;51.188;6.690;2022-10-22T06:26:50;16.23;;;9.45;;
53857;SDS011;39763;51.188;6.690;2022-10-22T06:28:28;15.60;;;9.63;;
53857;SDS011;39763;51.188;6.690;2022-10-22T06:30:00;19.20;;;9.98;;
53857;SDS011;39763;51.188;6.690;2022-10-22T06:31:32;16.95;;;9.57;;
53857;SDS011;39763;51.188;6.690;2022-10-22T06:33:07;16.88;;;9.80;;
53857;SDS011;39763;51.188;6.690;2022-10-22T06:34:38;18.33;;;9.10;;
53857;SDS011;39763;51.188;6.690;2022-10-22T06:36:11;20.35;;;9.57;;
53857;SDS011;39763;51.188;6.690;2022-10-22T06:37:44;16.73;;;9.18;;
53857;SDS011;39763;51.188;6.690;2022-10-22T06:39:19;17.48;;;9.27;;
53857;SDS011;39763;51.188;6.690;2022-10-22T06:40:50;16.50;;;8.77;;
53857;SDS011;39763;51.188;6.690;2022-10-22T06:42:22;16.08;;;8.60;;
53857;SDS011;39763;51.188;6.690;2022-10-22T06:43:54;16.77;;;9.10;;
53857;SDS011;39763;51.188;6.690;2022-10-22T06:45:27;18.10;;;9.10;;
53857;SDS011;39763;51.188;6.690;2022-10-22T06:46:59;14.80;;;8.68;;
53857;SDS011;39763;51.188;6.690;2022-10-22T06:48:30;14.13;;;7.97;;
53857;SDS011;39763;51.188;6.690;2022-10-22T06:50:02;14.98;;;7.97;;
53857;SDS011;39763;51.188;6.690;2022-10-22T06:51:34;15.48;;;8.55;;
53857;SDS011;39763;51.188;6.690;2022-10-22T06:53:06;15.43;;;8.18;;
53857;SDS011;39763;51.188;6.690;2022-10-22T06:54:42;14.32;;;8.30;;
53857;SDS011;39763;51.188;6.690;2022-10-22T06:56:14;13.70;;;7.45;;
53857;SDS011;39763;51.188;6.690;2022-10-22T06:57:48;19.60;;;7.95;;
53857;SDS011;39763;51.188;6.690;2022-10-22T06:59:19;14.80;;;8.00;;
53857;SDS011;39763;51.188;6.690;2022-10-22T07:00:59;15.95;;;8.15;;
53857;SDS011;39763;51.188;6.690;2022-10-22T07:04:03;15.20;;;7.72;;
53857;SDS011;39763;51.188;6.690;2022-10-22T07:05:35;14.80;;;8.10;;
53857;SDS011;39763;51.188;6.690;2022-10-22T07:07:07;13.93;;;7.35;;
53857;SDS011;39763;51.188;6.690;2022-10-22T07:08:39;15.02;;;6.70;;
53857;SDS011;39763;51.188;6.690;2022-10-22T07:10:13;19.15;;;7.70;;
53857;SDS011;39763;51.188;6.690;2022-10-22T07:11:45;13.50;;;6.65;;
53857;SDS011;39763;51.188;6.690;2022-10-22T07:13:17;17.23;;;7.05;;
53857;SDS011;39763;51.188;6.690;2022-10-22T07:14:48;13.32;;;6.70;;
53857;SDS011;39763;51.188;6.690;2022-10-22T07:16:20;14.30;;;6.50;;
53857;SDS011;39763;51.188;6.690;2022-10-22T07:17:52;15.77;;;6.85;;
53857;SDS011;39763;51.188;6.690;2022-10-22T07:19:24;14.32;;;6.95;;
53857;SDS011;39763;51.188;6.690;2022-10-22T07:20:55;12.93;;;6.00;;
53857;SDS011;39763;51.188;6.690;2022-10-22T07:22:27;14.23;;;5.88;;
53857;SDS011;39763;51.188;6.690;2022-10-22T07:23:59;13.10;;;6.57;;
53857;SDS011;39763;51.188;6.690;2022-10-22T07:25:32;14.57;;;6.60;;
53857;SDS011;39763;51.188;6.690;2022-10-22T07:27:04;13.10;;;5.68;;
53857;SDS011;39763;51.188;6.690;2022-10-22T07:28:42;13.32;;;5.93;;
53857;SDS011;39763;51.188;6.690;2022-10-22T07:30:14;12.23;;;5.80;;
53857;SDS011;39763;51.188;6.690;2022-10-22T07:31:45;12.65;;;5.82;;
53857;SDS011;39763;51.188;6.690;2022-10-22T07:33:17;13.02;;;5.43;;
53857;SDS011;39763;51.188;6.690;2022-10-22T07:34:49;15.60;;;5.80;;
53857;SDS011;39763;51.188;6.690;2022-10-22T07:36:20;11.85;;;5.80;;
53857;SDS011;39763;51.188;6.690;2022-10-22T07:37:52;10.85;;;5.82;;
53857;SDS011;39763;51.188;6.690;2022-10-22T07:39:23;11.52;;;5.60;;
53857;SDS011;39763;51.188;6.690;2022-10-22T07:40:57;14.85;;;5.63;;
53857;SDS011;39763;51.188;6.690;2022-10-22T07:42:29;14.30;;;5.93;;
53857;SDS011;39763;51.188;6.690;2022-10-22T07:44:00;12.07;;;5.65;;
53857;SDS011;39763;51.188;6.690;2022-10-22T07:45:32;12.93;;;5.65;;
53857;SDS011;39763;51.188;6.690;2022-10-22T07:47:04;14.90;;;7.20;;
53857;SDS011;39763;51.188;6.690;2022-10-22T07:48:36;13.07;;;6.25;;
53857;SDS011;39763;51.188;6.690;2022-10-22T07:50:08;13.60;;;5.97;;
53857;SDS011;39763;51.188;6.690;2022-10-22T07:51:40;14.05;;;6.40;;
53857;SDS011;39763;51.188;6.690;2022-10-22T07:53:12;15.48;;;6.72;;
53857;SDS011;39763;51.188;6.690;2022-10-22T07:54:43;14.23;;;5.97;;
53857;SDS011;39763;51.188;6.690;2022-10-22T07:56:16;15.05;;;6.43;;
53857;SDS011;39763;51.188;6.690;2022-10-22T07:57:48;13.40;;;5.55;;
53857;SDS011;39763;51.188;6.690;2022-10-22T07:59:21;17.10;;;5.35;;
53857;SDS011;39763;51.188;6.690;2022-10-22T08:00:54;12.20;;;5.30;;
53857;SDS011;39763;51.188;6.690;2022-10-22T08:02:26;14.60;;;5.15;;
53857;SDS011;39763;51.188;6.690;2022-10-22T08:03:58;22.42;;;10.68;;
53857;SDS011;39763;51.188;6.690;2022-10-22T08:05:29;12.38;;;4.60;;
53857;SDS011;39763;51.188;6.690;2022-10-22T08:07:01;13.45;;;4.65;;
53857;SDS011;39763;51.188;6.690;2022-10-22T08:08:33;13.95;;;4.25;;
53857;SDS011;39763;51.188;6.690;2022-10-22T08:10:05;11.68;;;4.45;;
53857;SDS011;39763;51.188;6.690;2022-10-22T08:11:39;14.10;;;4.68;;
53857;SDS011;39763;51.188;6.690;2022-10-22T08:13:11;11.77;;;4.03;;
53857;SDS011;39763;51.188;6.690;2022-10-22T08:14:43;13.85;;;4.70;;
53857;SDS011;39763;51.188;6.690;2022-10-22T08:16:14;12.05;;;4.10;;
53857;SDS011;39763;51.188;6.690;2022-10-22T08:17:46;13.13;;;4.82;;
53857;SDS011;39763;51.188;6.690;2022-10-22T08:19:17;11.40;;;4.20;;
53857;SDS011;39763;51.188;6.690;2022-10-22T08:20:51;13.45;;;4.15;;
53857;SDS011;39763;51.188;6.690;2022-10-22T08:22:23;10.95;;;4.00;;
53857;SDS011;39763;51.188;6.690;2022-10-22T08:23:55;16.08;;;6.93;;
53857;SDS011;39763;51.188;6.690;2022-10-22T08:25:27;12.02;;;4.20;;
53857;SDS011;39763;51.188;6.690;2022-10-22T08:27:00;10.13;;;3.80;;
53857;SDS011;39763;51.188;6.690;2022-10-22T08:28:31;10.38;;;3.60;;
53857;SDS011;39763;51.188;6.690;2022-10-22T08:30:07;10.93;;;3.85;;
53857;SDS011;39763;51.188;6.690;2022-10-22T08:31:39;12.70;;;4.10;;
53857;SDS011;39763;51.188;6.690;2022-10-22T08:33:11;13.32;;;4.13;;
53857;SDS011;39763;51.188;6.690;2022-10-22T08:34:43;12.25;;;3.83;;
53857;SDS011;39763;51.188;6.690;2022-10-22T08:36:14;10.60;;;3.70;;
53857;SDS011;39763;51.188;6.690;2022-10-22T08:37:46;13.07;;;3.65;;
53857;SDS011;39763;51.188;6.690;2022-10-22T08:39:18;10.07;;;3.80;;
53857;SDS011;39763;51.188;6.690;2022-10-22T08:40:51;13.68;;;3.38;;
53857;SDS011;39763;51.188;6.690;2022-10-22T08:42:31;10.32;;;3.88;;
53857;SDS011;39763;51.188;6.690;2022-10-22T08:44:29;9.02;;;3.17;;
53857;SDS011;39763;51.188;6.690;2022-10-22T08:46:32;12.35;;;5.72;;
53857;SDS011;39763;51.188;6.690;2022-10-22T08:48:18;10.77;;;3.70;;
53857;SDS011;39763;51.188;6.690;2022-10-22T08:49:58;11.93;;;3.45;;
53857;SDS011;39763;51.188;6.690;2022-10-22T08:51:32;11.52;;;3.38;;
53857;SDS011;39763;51.188;6.690;2022-10-22T08:53:10;12.88;;;3.22;;
53857;SDS011;39763;51.188;6.690;2022-10-22T08:54:46;15.88;;;4.18;;
53857;SDS011;39763;51.188;6.690;2022-10-22T08:56:22;9.82;;;3.13;;
53857;SDS011;39763;51.188;6.690;2022-10-22T08:57:56;12.60;;;3.80;;
53857;SDS011;39763;51.188;6.690;2022-10-22T08:59:33;10.75;;;3.40;;
53857;SDS011;39763;51.188;6.690;2022-10-22T09:01:12;8.00;;;3.00;;
53857;SDS011;39763;51.188;6.690;2022-10-22T09:02:50;11.52;;;3.55;;
53857;SDS011;39763;51.188;6.690;2022-10-22T09:04:29;10.73;;;3.50;;
53857;SDS011;39763;51.188;6.690;2022-10-22T09:06:09;12.18;;;3.47;;
53857;SDS011;39763;51.188;6.690;2022-10-22T09:07:44;10.50;;;3.97;;
53857;SDS011;39763;51.188;6.690;2022-10-22T09:09:20;13.00;;;3.72;;
53857;SDS011;39763;51.188;6.690;2022-10-22T09:10:54;13.77;;;4.47;;
53857;SDS011;39763;51.188;6.690;2022-10-22T09:12:31;11.27;;;4.00;;
53857;SDS011;39763;51.188;6.690;2022-10-22T09:14:05;11.30;;;3.70;;
53857;SDS011;39763;51.188;6.690;2022-10-22T09:15:42;13.15;;;4.95;;
53857;SDS011;39763;51.188;6.690;2022-10-22T09:17:19;12.23;;;5.22;;